Tiempo atmosférico en la estación meteorológica de Barcelona Aeropuerto, Barcelona (4 m.)



Fecha
DESCASC
Temp. máxima en grados centígrados (hora)
DESCASC
Temp. mínima en grados centígrados (hora)
DESCASC
Temp. media en grados centígrados
DESCASC
Racha de viento máxima en m/sg (hora)
DESCASC
Velocidad máxima media en intervalos de 10 minutos(hora)
DESCASC
Precipitaciones diarias en mm
DESCASC
Precipitaciones de 00:00 a 06:00 en mm
DESCASC
Precipitaciones de 06:00 a 12:00 en mm
DESCASC
Precipitaciones de 12:00 a 18:00 en mm
DESCASC
Precipitaciones de 18:00 a 24:00 en mm
DESCASC
23-05-2018 23 (17:00) 15.9 (05:20) 19.4 17.5 (07:20) 7.5 (16:40) 0 0 0 0 0
22-05-2018 22.6 (15:20) 16.7 (03:10) 19.7 7.22 (15:20) 5.56 (15:30) 0 0 0 0 0
21-05-2018 21.8 (17:30) 15.6 (07:00) 18.7 8.33 (14:00) 5.28 (13:40) 0 0 0 0 0
20-05-2018 24.3 (11:20) 16.6 (00:00) 20.4 8.33 (07:40) 6.39 (18:50) 0 0 0 0 0
19-05-2018 24.1 (11:00) 15 (00:00) 19.6 7.22 (12:30) 5 (07:00) 0 0 0 0 0
18-05-2018 21.8 (15:40) 16.9 (00:00) 19.3 6.67 (07:40) 5 (07:40) 0 0 0 0 0
17-05-2018 23.5 (11:40) 15.4 (00:00) 19.4 6.67 (13:00) 5.28 (14:10) 0 0 0 0 0
16-05-2018 22.2 (11:20) 13.5 (00:00) 17.9 9.72 (10:50) 5.56 (10:00) 0 0 0 0 0
15-05-2018 23.3 (16:30) 11 (00:00) 17.1 13.33 (17:10) 10.28 (17:00) 0 0 0 0 0
14-05-2018 19.6 (16:40) 10.5 (00:00) 15.1 11.39 (18:40) 9.17 (18:40) 0 0 0 0 0
13-05-2018 19.8 (17:30) 10.1 (00:00) 14.9 14.44 (18:30) 10.83 (18:30) 4.5 4.5 0 0 0
12-05-2018 20.6 (11:40) 15.4 (00:00) 18 9.17 (12:50) 6.67 (12:50) 1.2 0 0 0 1.2
11-05-2018 21.1 (14:00) 14.3 (07:00) 17.7 14.44 (15:40) 10.83 (16:10) 0 0 0 0 0
10-05-2018 20.9 (14:30) 16 (00:00) 18.4 9.17 (15:10) 6.39 (15:20) 0 0 0 0 0
09-05-2018 21.9 (11:50) 14.7 (00:00) 18.3 7.78 (09:20) 6.39 (10:30) 0 0 0 0 0
08-05-2018 22 (15:30) 15.3 (00:00) 18.7 8.33 (19:20) 6.39 (19:20) 0.5 0 0 0 0.5
07-05-2018 22.8 (12:30) 15.8 (00:00) 19.3 11.39 (16:20) 8.89 (16:50) 0 0 0 0 0
06-05-2018 22.5 (15:20) 14.7 (00:00) 18.6 12.5 (13:40) 6.39 (17:30) 2.7 0 2.2 0.5 0
05-05-2018 21.3 (18:40) 14.7 (00:00) 18 10.83 (08:20) 7.5 (07:30) 1.3 0 0.3 0.9 0.1
04-05-2018 17.6 (13:30) 13.1 (00:00) 15.4 9.72 (05:00) 6.67 (05:00) 0 0 0 0 0
03-05-2018 23.6 (15:10) 11.6 (00:00) 17.6 9.17 (12:30) 7.22 (12:30) 1.5 0 0 1.3 0.2
02-05-2018 19.1 (17:00) 7.2 (00:00) 13.2 11.39 (19:10) 8.61 (19:10) 0 0 0 0 0
01-05-2018 16.8 (14:40) 9.3 (08:50) 13 14.44 (09:20) 8.33 (18:20) 33.1 3.7 28.1 0 1.3
30-04-2018 19.4 (16:00) 10 (00:00) 14.7 12.5 (15:50) 9.44 (13:50) 0 0 0 0 0
29-04-2018 20.1 (14:50) 13.4 (00:00) 16.8 22.78 (15:00) 15.83 (15:00) 0.4 0 0.4 0 0
28-04-2018 21.1 (15:20) 15.8 (00:00) 18.5 6.67 (02:00) 5 (02:00) 0 0 0 0 0

Gráficas

Temp. máximas Temp. mínimas Temp. medias Precipitaciones Rachas de viento máximas Velocidades máximas media en intervalos de 10 minutos

Datos horarios

Fecha y hora oficial Temperatura (ºC) Velocidad del viento (km/h) Dirección del viento Racha (km/h) Dirección de racha Precipitación (mm) Presión (hPa) Tendencia (hPa) Humedad (%)
2018-05-27 23:00:00 20.4 20 Este 28 Este 0 1012.3 0.9 74
2018-05-27 22:00:00 20.8 21 Este 32 Nordeste 0 1011.7 1 72
2018-05-27 21:00:00 21.3 23 Nordeste 35 Nordeste 0 1011.2 0.1 71
2018-05-27 20:00:00 21.6 21 Este 42 Este 0 1011.4 0.8 71
2018-05-27 19:00:00 22.8 39 Este 50 Este 0 1010.7 -0.2 64
2018-05-27 18:00:00 22.5 37 Este 52 Este 0 1011.1 -0.1 67
2018-05-27 17:00:00 23 33 Este 48 Este 0 1010.6 -1 66
2018-05-27 16:00:00 22.9 25 Este 42 Este 0 1010.9 -1.3 67
2018-05-27 15:00:00 23.3 29 Este 45 Este 0 1011.2 -0.9 65
2018-05-27 14:00:00 23.9 33 Este 48 Este 0 1011.6 -0.6 61
2018-05-27 13:00:00 23 32 Este 50 Este 0 1012.2 0.2 65
2018-05-27 12:00:00 22.9 37 Este 46 Este 0 1012.1 -0.3 66
2018-05-27 11:00:00 23.3 33 Este 45 Este 0 1012.2 0.3 62
2018-05-27 10:00:00 22.2 35 Este 50 Este 0 1012 0.1 63
2018-05-27 09:00:00 21.6 30 Este 42 Este 0 1012.4 0.2 66
2018-05-27 08:00:00 21.1 32 Este 41 Este 0 1011.9 0.2 65
2018-05-27 07:00:00 20 27 Este 35 Nordeste 0 1011.9 0 73
2018-05-27 06:00:00 20.1 24 Este 37 Este 0 1012.2 -0.5 72
2018-05-27 05:00:00 19.8 21 Este 39 Este 0 1011.7 -1.9 74
2018-05-27 04:00:00 20.2 30 Este 41 Este 0 1011.9 -2.1 71
2018-05-27 03:00:00 20.4 27 Este 37 Este 0 1012.7 -1.7 72
2018-05-27 02:00:00 20.3 22 Este 28 Nordeste 0 1013.6 -0.8 73
2018-05-27 01:00:00 20.3 22 Este 30 Este 0 1014 0.1 73
2018-05-27 00:00:00 20.5 23 Este 30 Este 0 1014.4 0.8 74
2018-05-26 23:00:00 20.5 26 Este 33 Este 0 1014.4 0.5 76
2018-05-26 22:00:00 20.3 25 Este 35 Este 0 1013.9 0.3 78
2018-05-26 21:00:00 20.6 29 Este 37 Este 0 1013.6 -0.5 76
2018-05-26 20:00:00 21.3 26 Este 37 Este 0 1013.9 -0.4 73
2018-05-26 19:00:00 21.6 28 Este 39 Nordeste 0 1013.6 -0.8 71
2018-05-26 18:00:00 22 31 Este 45 Este 0 1014.1 -0.6 69
2018-05-26 17:00:00 22.1 33 Este 45 Este 0 1014.3 -0.6 68
2018-05-26 16:00:00 22.9 36 Este 50 Este 0 1014.4 -0.3 64
2018-05-26 15:00:00 23.1 34 Este 48 Este 0 1014.7 -0.2 62
2018-05-26 14:00:00 23.4 36 Este 45 Este 0 1014.9 0.2 58
2018-05-26 13:00:00 22.7 37 Este 54 Este 0 1014.7 -0.1 63
2018-05-26 12:00:00 22.9 41 Este 54 Este 0 1014.9 0.1 63
2018-05-26 11:00:00 22.8 37 Este 48 Este 0 1014.7 0.3 64
2018-05-26 10:00:00 21.6 37 Este 48 Este 0 1014.8 1.1 69
2018-05-26 09:00:00 20.5 35 Este 45 Este 0 1014.8 0.4 76
2018-05-26 08:00:00 19.5 32 Este 39 Este 0 1014.4 0.6 83
2018-05-26 07:00:00 18.9 31 Nordeste 42 Este 0 1013.7 0.7 88
2018-05-26 06:00:00 19.4 18 Este 24 Este 0 1014.4 0.4 86
2018-05-26 05:00:00 19.2 14 Este 45 Este 0.1 1013.8 -0.2 87
2018-05-26 04:00:00 19.3 32 Este 42 Este 0.1 1013 -1.4 87
2018-05-26 03:00:00 19.5 26 Este 35 Este 0.6 1014 -0.2 86
2018-05-26 02:00:00 20.2 23 Este 33 Este 0 1014 -0.4 79
2018-05-26 01:00:00 20.1 24 Este 33 Este 0 1014.4 0.4 79
2018-05-26 00:00:00 20 25 Este 37 Este 0 1014.2 0.6 80
2018-05-25 23:00:00 20 27 Este 37 Este 0 1014.4 1.3 78
2018-05-25 22:00:00 20 28 Este 39 Este 0 1014 1.2 77
2018-05-25 21:00:00 20.4 32 Este 41 Este 0 1013.6 0.3 73
2018-05-25 20:00:00 22.3 33 Este 45 Este 0 1013.1 -0.4 59
2018-05-25 19:00:00 22.7 36 Este 50 Este 0 1012.8 -1 56
2018-05-25 18:00:00 23.7 36 Este 50 Este 0 1013.3 -1.1 49
2018-05-25 17:00:00 24 44 Este 59 Este 0 1013.5 -1.3 45
2018-05-25 16:00:00 24.5 44 Este 54 Este 0 1013.8 -1.4 40
2018-05-25 15:00:00 24.5 40 Este 52 Este 0 1014.4 -0.7 41
2018-05-25 14:00:00 24.5 39 Este 50 Este 0 1014.8 0 40
2018-05-25 13:00:00 24.5 35 Este 46 Este 0 1015.2 0.1 38
2018-05-25 12:00:00 23.4 32 Nordeste 46 Nordeste 0 1015.1 0.4 44
2018-05-25 11:00:00 22.6 33 Nordeste 45 Nordeste 0 1014.8 -0.4 47
2018-05-25 10:00:00 21.6 30 Este 37 Nordeste 0 1015.1 0.2 51
2018-05-25 09:00:00 20.7 25 Nordeste 39 Nordeste 0 1014.7 -0.1 58
2018-05-25 08:00:00 18.5 14 Nordeste 32 Norte 0 1015.2 0.9 65
2018-05-25 07:00:00 17.7 15 Nordeste 22 Norte 0 1014.9 0 70
2018-05-25 06:00:00 17.5 11 Norte 17 Nordeste 0 1014.8 -0.4 67
2018-05-25 05:00:00 17.4 12 Norte 21 Norte 0 1014.3 -1.5 73
2018-05-25 04:00:00 17.9 12 Nordeste 18 Norte 0 1014.9 -1 71
2018-05-25 03:00:00 18.3 13 Norte 17 Norte 0 1015.2 -0.9 70
2018-05-25 02:00:00 18.6 9 Norte 11 Norte 0 1015.8 -0.4 69
2018-05-25 01:00:00 19.9 10 Este 15 Este 0 1015.9 -0.2 79
2018-05-25 00:00:00 20.1 11 Este 32 Nordeste 0 1016.1 0.3 77
2018-05-24 23:00:00 20.2 13 Este 18 Este 0 1016.2 0.3 76
2018-05-24 22:00:00 20.4 10 Este 15 Este 0 1016.1 0.5 76
2018-05-24 21:00:00 21.6 7 Sudeste 13 Sudeste 0 1015.8 0.2 67
2018-05-24 20:00:00 21.8 8 Sur 21 Sudoeste 0 1015.9 0.2 65
2018-05-24 19:00:00 22.6 14 Sur 22 Sudoeste 0 1015.6 -0.5 62
2018-05-24 18:00:00 23.6 12 Sur 22 Sudeste 0 1015.6 -0.6 56
2018-05-24 17:00:00 23.7 13 Sur 22 Sur 0 1015.7 -0.6 54
2018-05-24 16:00:00 23.5 16 Sur 24 Sur 0 1016.1 -0.6 58
2018-05-24 15:00:00 24.4 15 Sur 24 Sur 0 1016.2 -1.1 52
2018-05-24 14:00:00 23.8 17 Sur 22 Sur 0 1016.3 -0.8 49
2018-05-24 13:00:00 23.4 14 Sur 22 Sur 0 1016.7 -0.7 63
2018-05-24 12:00:00 22.1 15 Sur 22 Sur 0 1017.3 -0.1 75
2018-05-24 11:00:00 22.2 8 Sur 15 Sudoeste 0 1017.1 -0.2 75
2018-05-24 10:00:00 21.3 9 Sudoeste 11 Sudoeste 0 1017.4 0.3 76
2018-05-24 09:00:00 20.9 4 Noroeste 13 Norte 0 1017.4 0.6 72
2018-05-24 08:00:00 18.1 10 Norte 15 Norte 0 1017.3 0.3 83
2018-05-24 07:00:00 17.6 4 Norte 9 Norte 0 1017.1 0.3 82
2018-05-24 06:00:00 17.6 5 Norte 9 Noroeste 0 1016.8 -0.3 85
2018-05-24 05:00:00 17.5 4 Norte 9 Noroeste 0 1017 -0.3 82
2018-05-24 04:00:00 18.1 0 Calma 11 Norte 0 1016.8 -1 80
2018-05-24 03:00:00 18.3 6 Noroeste 11 Norte 0 1017.1 -1.1 83
2018-05-24 02:00:00 18.4 5 Oeste 9 Oeste 0 1017.3 -0.8 82
2018-05-24 01:00:00 18.8 4 Oeste 8 Oeste 0 1017.8 0.1 83
2018-05-24 00:00:00 18.9 5 Oeste 15 Sudoeste 0 1018.2 1.1 86
2018-05-23 23:00:00 19.7 9 Sudoeste 15 Sudoeste 0 1018.1 1.6 84
2018-05-23 22:00:00 19.6 10 Oeste 18 Sudoeste 0 1017.7 1.5 84
2018-05-23 21:00:00 20.3 12 Sudoeste 26 Oeste 0 1017.1 0.9 82
2018-05-23 20:00:00 20.8 17 Sudoeste 30 Sudoeste 0 1016.5 0 79
2018-05-23 19:00:00 21.6 21 Sudoeste 30 Sudoeste 0 1016.2 -0.6 75
2018-05-23 18:00:00 22 22 Sudoeste 35 Sudoeste 0 1016.2 -0.9 74
2018-05-23 17:00:00 22.7 26 Sudoeste 39 Sudoeste 0 1016.5 -1.1 71
2018-05-23 16:00:00 22.6 24 Sudoeste 33 Sudoeste 0 1016.8 -0.8 70
2018-05-23 15:00:00 22.6 22 Sudoeste 32 Sudoeste 0 1017.1 -0.5 72
2018-05-23 14:00:00 22 26 Sudoeste 33 Sudoeste 0 1017.6 0.4 72
2018-05-23 13:00:00 22 24 Sudoeste 30 Sudoeste 0 1017.6 0.4 71
2018-05-23 12:00:00 21.2 21 Sudoeste 26 Sudoeste 0 1017.6 0.5 75
2018-05-23 11:00:00 21.4 13 Sur 32 Sudoeste 0 1017.2 0.3 76
2018-05-23 10:00:00 20.6 15 Sudoeste 21 Sudoeste 0 1017.2 0.7 77
2018-05-23 09:00:00 19.5 5 Norte 13 Norte 0 1017.1 0.8 73
2018-05-23 08:00:00 17 10 Norte 63 Norte 0 1016.9 0.5 79
2018-05-23 07:00:00 16.1 12 Norte 21 Norte 0 1016.5 0.1 84
2018-05-23 06:00:00 16 14 Norte 17 Norte 0 1016.3 -0.1 84
2018-05-23 05:00:00 16.3 12 Norte 15 Norte 0 1016.4 -0.3 84
2018-05-23 04:00:00 16.6 12 Norte 15 Norte 0 1016.4 -0.2 83
2018-05-23 03:00:00 17.1 11 Norte 15 Norte 0 1016.4 -0.1 83
2018-05-23 02:00:00 18.2 5 Noroeste 13 Sudoeste 0 1016.7 0.5 86
2018-05-23 01:00:00 19.3 11 Sudoeste 15 Sudoeste 0 1016.6 1.2 85
2018-05-23 00:00:00 19.1 6 Sur 17 Sudoeste 0 1016.5 1.6 85
2018-05-22 23:00:00 19.1 8 Sudoeste 13 Sudoeste 0 1016.2 1.7 86
2018-05-22 22:00:00 19.3 7 Sur 13 Sur 0 1015.4 0.9 83
2018-05-22 21:00:00 19.9 11 Sur 24 Oeste 0 1014.9 0.7 81
2018-05-22 20:00:00 21 11 Sudoeste 18 Sudoeste 0 1014.5 0.8 76
2018-05-22 19:00:00 21.4 11 Sudoeste 18 Sudoeste 0 1014.5 0.7 73
2018-05-22 18:00:00 21.5 15 Sudoeste 26 Sudoeste 0 1014.2 0.6 71
2018-05-22 17:00:00 21.9 17 Sudoeste 26 Sudoeste 0 1013.7 -0.1 71
2018-05-22 16:00:00 22.1 18 Sudoeste 26 Sudoeste 0 1013.8 -0.2 68
2018-05-22 15:00:00 22.4 14 Sur 22 Sur 0 1013.6 -0.4 63
2018-05-22 14:00:00 21.9 12 Sur 18 Sur 0 1013.8 0 65
2018-05-22 13:00:00 21.7 12 Sudeste 22 Sudeste 0 1014 0.4 64
2018-05-22 12:00:00 21.7 14 Este 22 Este 0 1014 0.7 65
2018-05-22 11:00:00 20.6 11 Este 24 Nordeste 0 1013.8 1.1 70
2018-05-22 10:00:00 19.5 9 Este 18 Este 0 1013.6 1.6 70
2018-05-22 09:00:00 18.6 5 Nordeste 13 Norte 0 1013.3 1.8 72
2018-05-22 08:00:00 17.9 9 Norte 18 Norte 0 1012.7 1.8 74
2018-05-22 07:00:00 17.5 15 Norte 21 Norte 0 1012 1.1 75
2018-05-22 06:00:00 17.5 13 Norte 17 Norte 0 1011.5 0.6 74
2018-05-22 05:00:00 17.3 10 Norte 13 Norte 0 1010.9 -0.2 73
2018-05-22 04:00:00 17.1 0 Calma 11 Oeste 0 1010.9 -0.7 74
2018-05-22 03:00:00 17 11 Oeste 15 Norte 0 1010.9 -1.3 69
2018-05-22 02:00:00 18.9 11 Norte 15 Norte 0 1011.1 -1.3 60
2018-05-22 01:00:00 19.7 2 Este 11 Nordeste 0 1011.6 -0.2 53
2018-05-22 00:00:00 19.4 2 Noroeste 13 Noroeste 0 1012.2 0.8 55
2018-05-21 23:00:00 18.9 5 Norte 13 Oeste 0 1012.4 1.5 73
2018-05-21 22:00:00 18.6 6 Oeste 13 Oeste 0 1011.8 0.9 74
2018-05-21 21:00:00 19.5 10 Sudoeste 17 Sudoeste 0 1011.4 1 64
2018-05-21 20:00:00 20.4 12 Sudoeste 17 Sudoeste 0 1010.9 0.4 58
2018-05-21 19:00:00 20.7 13 Sudoeste 18 Sudoeste 0 1010.9 -0.1 54
2018-05-21 18:00:00 21.1 13 Sudoeste 17 Sudoeste 0 1010.4 -0.9 59
2018-05-21 17:00:00 21.4 10 Sur 18 Sudeste 0 1010.5 -1.2 59
2018-05-21 16:00:00 20.6 13 Sudeste 22 Sudeste 0 1011 -1 62
2018-05-21 15:00:00 21.2 13 Sudeste 24 Sudeste 0 1011.3 -0.9 58
2018-05-21 14:00:00 20.4 18 Sudeste 30 Sudeste 0 1011.7 -0.7 65
2018-05-21 13:00:00 21.2 14 Sudeste 22 Sur 0 1012 -0.6 61
2018-05-21 12:00:00 21.3 12 Sudeste 21 Sudeste 0 1012.2 -0.2 61
2018-05-21 11:00:00 20.8 8 Este 17 Nordeste 0 1012.4 0.3 67
2018-05-21 10:00:00 18.9 14 Este 22 Sudeste 0 1012.6 0.6 72
2018-05-21 09:00:00 18.1 8 Norte 15 Norte 0 1012.4 0.4 73
2018-05-21 08:00:00 16.3 12 Norte 21 Norte 0 1012.1 0.2 78
2018-05-21 07:00:00 15.7 13 Norte 17 Norte 0 1012 0 81
2018-05-21 06:00:00 16 11 Norte 17 Norte 0 1012 -0.1 79
2018-05-21 05:00:00 16.2 11 Norte 17 Norte 0 1011.9 -0.8 80
2018-05-21 04:00:00 16.4 12 Norte 18 Norte 0 1012 -1.2 79
2018-05-21 03:00:00 16.6 13 Norte 21 Nordeste 0 1012.1 -1.4 77
2018-05-21 02:00:00 16.9 6 Norte 13 Nordeste 0 1012.7 -0.9 76
2018-05-21 01:00:00 17.7 5 Norte 9 Norte 0 1013.2 -0.1 85
2018-05-21 00:00:00 17.8 8 Este 17 Este 0 1013.5 0.4 86
2018-05-20 23:00:00 18 13 Este 21 Sudeste 0 1013.6 1 84
2018-05-20 22:00:00 18.2 12 Este 21 Este 0 1013.3 0.7 82
2018-05-20 21:00:00 18.8 15 Este 24 Este 0 1013.1 0.2 76
2018-05-20 20:00:00 20 17 Este 24 Este 0 1012.6 -0.7 67
2018-05-20 19:00:00 22.7 21 Este 28 Nordeste 0 1012.6 -1.2 46
2018-05-20 18:00:00 22.2 13 Este 24 Este 0 1012.9 -1.3 51
2018-05-20 17:00:00 22.6 13 Este 26 Norte 0 1013.3 -1 49
2018-05-20 16:00:00 22.4 11 Sudeste 21 Este 0 1013.8 -0.4 58
2018-05-20 15:00:00 21.9 11 Sudeste 24 Sudeste 0 1014.2 -0.3 59
2018-05-20 14:00:00 21.5 20 Sudeste 30 Sudeste 0 1014.3 -0.3 62
2018-05-20 13:00:00 22.8 18 Sudeste 28 Sudeste 0 1014.2 -0.4 53
2018-05-20 12:00:00 23.5 17 Sudeste 22 Sudeste 0 1014.5 -0.2 47
2018-05-20 11:00:00 23.6 8 Nordeste 18 Norte 0 1014.6 -0.1 46
2018-05-20 10:00:00 21.6 13 Norte 21 Norte 0 1014.6 0.2 54
2018-05-20 09:00:00 19.7 16 Norte 28 Norte 0 1014.7 0.2 63
2018-05-20 08:00:00 17.4 20 Norte 30 Norte 0 1014.7 0.2 74
2018-05-20 07:00:00 16.7 18 Norte 24 Norte 0 1014.4 -0.4 79
2018-05-20 06:00:00 16.9 19 Norte 24 Norte 0 1014.5 -0.6 79
2018-05-20 05:00:00 17.3 15 Norte 22 Norte 0 1014.5 -1 79
2018-05-20 04:00:00 17.6 12 Norte 18 Noroeste 0 1014.8 -0.9 77
2018-05-20 03:00:00 18.1 13 Norte 18 Norte 0 1015.1 -0.8 75
2018-05-20 02:00:00 18.8 11 Norte 15 Norte 0 1015.5 -0.2 71
2018-05-20 01:00:00 19.1 5 Oeste 13 Oeste 0 1015.7 0.6 74
2018-05-20 00:00:00 19.5 9 Oeste 15 Oeste 0 1015.9 0.9 71
2018-05-19 23:00:00 19.6 10 Oeste 17 Oeste 0 1015.7 1 69
2018-05-19 22:00:00 20.2 8 Norte 15 Norte 0 1015.1 0.1 59
2018-05-19 21:00:00 20.3 13 Norte 22 Norte 0 1015 -0.6 63
2018-05-19 20:00:00 21.1 8 Este 17 Sudeste 0 1014.7 -0.9 55
2018-05-19 19:00:00 22.2 9 Sudeste 17 Sudeste 0 1015 -0.7 50
2018-05-19 18:00:00 22.5 11 Sudeste 17 Sudeste 0 1015.6 -0.6 49
2018-05-19 17:00:00 23.9 8 Sudoeste 24 Sudoeste 0 1015.6 -0.5 46
2018-05-19 16:00:00 23.2 14 Sudoeste 22 Sudoeste 0 1015.7 -0.8 50
2018-05-19 15:00:00 22.6 15 Sudoeste 24 Sudoeste 0 1016.2 -0.3 57
2018-05-19 14:00:00 23 13 Sudoeste 22 Sudoeste 0 1016.1 -0.2 55
2018-05-19 13:00:00 23.4 12 Sur 26 Sur 0 1016.5 0 49
2018-05-19 12:00:00 22.9 14 Sudeste 22 Sudeste 0 1016.5 0.2 48
2018-05-19 11:00:00 24 8 Sudeste 18 Sudeste 0 1016.3 0.1 47
2018-05-19 10:00:00 21.6 12 Norte 21 Norte 0 1016.5 0.7 56
2018-05-19 09:00:00 19 14 Norte 22 Norte 0 1016.3 0.8 66
2018-05-19 08:00:00 17.2 17 Norte 22 Norte 0 1016.2 0.6 71
2018-05-19 07:00:00 15.1 18 Norte 24 Norte 0 1015.8 0.2 80
2018-05-19 06:00:00 16 12 Norte 18 Norte 0 1015.5 -0.4 78
2018-05-19 05:00:00 16.1 9 Norte 13 Norte 0 1015.6 -0.7 77
2018-05-19 04:00:00 16.6 9 Norte 13 Norte 0 1015.6 -0.9 76
2018-05-19 03:00:00 17 13 Norte 17 Norte 0 1015.9 -0.8 74
2018-05-19 02:00:00 16.9 3 Norte 9 Norte 0 1016.3 -0.4 74
2018-05-19 01:00:00 16.9 5 Noroeste -- -- 0 1016.5 0 72
2018-05-19 00:00:00 17.3 5 Oeste 9 Oeste 0 1016.7 0.4 76
2018-05-18 23:00:00 18 8 Oeste 11 Oeste 0 1016.7 0.8 74
2018-05-18 22:00:00 19.1 9 Sudoeste 11 Sudoeste 0 1016.5 0.5 69
2018-05-18 21:00:00 18.8 8 Sudoeste 13 Oeste 0 1016.3 -0.1 65
2018-05-18 20:00:00 19.8 8 Sudoeste 17 Sudoeste 0 1015.9 -0.5 65
2018-05-18 19:00:00 20.4 11 Sudoeste 17 Sur 0 1016 -0.4 64
2018-05-18 18:00:00 21.3 8 Sudoeste 21 Sur 0 1016.4 -0.3 62
2018-05-18 17:00:00 21 10 Sur 21 Sur 0 1016.4 -0.7 63
2018-05-18 16:00:00 21.4 11 Sur 21 Sur 0 1016.4 -1 62
2018-05-18 15:00:00 20.9 12 Sudeste 21 Este 0 1016.7 -0.6 61
2018-05-18 14:00:00 20.6 10 Sudeste 18 Sudeste 0 1017.1 0.2 62
2018-05-18 13:00:00 20.6 10 Sur 21 Sudeste 0 1017.4 0.5 67
2018-05-18 12:00:00 20.7 13 Sudeste 22 Este 0 1017.3 0.7 61
2018-05-18 11:00:00 21 10 Sudeste 21 Sudeste 0 1016.9 0.5 63
2018-05-18 10:00:00 20.5 13 Sudeste 21 Este 0 1016.9 1 60
2018-05-18 09:00:00 20.1 8 Norte 17 Norte 0 1016.6 1.3 60
2018-05-18 08:00:00 18.1 15 Norte 24 Norte 0 1016.4 1 66
2018-05-18 07:00:00 16.9 14 Norte 18 Norte 0 1015.9 0.4 69
2018-05-18 06:00:00 17.4 12 Norte 17 Norte 0 1015.3 -0.3 66
2018-05-18 05:00:00 18.5 12 Nordeste 17 Norte 0 1015.4 -0.7 59
2018-05-18 04:00:00 18.5 10 Norte 18 Norte 0 1015.5 -1.1 59
2018-05-18 03:00:00 18.9 12 Norte 17 Norte 0 1015.6 -0.9 57
2018-05-18 02:00:00 19.1 7 Norte -- -- 0 1016.1 -0.4 57
2018-05-18 01:00:00 18.9 6 Noroeste 8 Noroeste 0 1016.6 0.6 59
2018-05-18 00:00:00 18.6 5 Oeste 9 Sudoeste 0 1016.5 0.8 66
2018-05-17 23:00:00 18.9 8 Oeste 15 Oeste 0 1016.5 1 64
2018-05-17 22:00:00 18.8 11 Oeste 15 Oeste 0 1016 0.5 62
2018-05-17 21:00:00 19 9 Oeste 15 Oeste 0 1015.7 0.4 68
2018-05-17 20:00:00 19.7 10 Sudoeste 17 Oeste 0 1015.5 0.3 65
2018-05-17 19:00:00 20.6 12 Sur 24 Sudoeste 0 1015.5 0.4 61
2018-05-17 18:00:00 21.1 14 Sur 21 Sudeste 0 1015.3 0.3 59
2018-05-17 17:00:00 21.6 13 Sudeste 22 Sudeste 0 1015.2 0 53
2018-05-17 16:00:00 22.1 13 Sudoeste 22 Sudoeste 0 1015.1 -0.2 46
2018-05-17 15:00:00 23 17 Sudoeste 24 Sudoeste 0 1015 -0.3 38
2018-05-17 14:00:00 22.7 18 Sudoeste 24 Sudoeste 0 1015.2 -0.1 46
2018-05-17 13:00:00 22.7 18 Sudoeste 24 Sudoeste 0 1015.3 -0.3 48
2018-05-17 12:00:00 23.1 10 Sudoeste 15 Sur 0 1015.3 -0.4 45
2018-05-17 11:00:00 22.2 8 Sudoeste 13 Sudoeste 0 1015.3 -0.5 56
2018-05-17 10:00:00 21.3 5 Oeste 11 Noroeste 0 1015.6 -0.2 60
2018-05-17 09:00:00 19 5 Norte 9 Norte 0 1015.7 -0.3 67
2018-05-17 08:00:00 17.3 4 Noroeste 13 Oeste 0 1015.8 0 78
2018-05-17 07:00:00 15.7 4 Oeste 8 Oeste 0 1015.8 0 78
2018-05-17 06:00:00 15.8 5 Noroeste 11 Norte 0 1016 -0.1 75
2018-05-17 05:00:00 15.9 9 Norte 13 Nordeste 0 1015.8 -0.4 73
2018-05-17 04:00:00 15.5 9 Norte 13 Norte 0 1015.8 -0.1 75
2018-05-17 03:00:00 16.6 4 Este 13 Norte 0 1016.1 0 74
2018-05-17 02:00:00 16.5 12 Norte 15 Norte 0 1016.2 0.3 69
2018-05-17 01:00:00 16.4 6 Norte 11 Norte 0 1015.9 0.5 71
2018-05-17 00:00:00 16.3 5 Noroeste 8 Noroeste 0 1016.1 1 75
2018-05-16 23:00:00 17.2 5 Sudoeste 17 Sudoeste 0 1015.9 1.2 78
2018-05-16 22:00:00 17.4 7 Sudoeste 15 Sudoeste 0 1015.4 0.7 74
2018-05-16 21:00:00 18.2 13 Sudoeste 18 Sudoeste 0 1015.1 0.1 69
2018-05-16 20:00:00 19.3 17 Sudoeste 22 Sudoeste 0 1014.7 -0.6 68
2018-05-16 19:00:00 20.7 15 Sudoeste 24 Oeste 0 1014.7 -1.1 56
2018-05-16 18:00:00 21.2 18 Sudoeste 24 Oeste 0 1015 -1.3 53
2018-05-16 17:00:00 20.8 18 Sudoeste 24 Sudoeste 0 1015.3 -1.3 54
2018-05-16 16:00:00 21.2 14 Sudoeste 21 Oeste 0 1015.8 -1 54
2018-05-16 15:00:00 20.7 12 Sudoeste 21 Sudoeste 0 1016.3 -0.5 56
2018-05-16 14:00:00 20.6 13 Sur 24 Sudoeste 0 1016.6 0.1 54
2018-05-16 13:00:00 20 12 Sur 18 Sudoeste 0 1016.8 0.5 58
2018-05-16 12:00:00 20.5 9 Sur 18 Nordeste 0 1016.8 0.4 59
2018-05-16 11:00:00 21 14 Nordeste 35 Norte 0 1016.5 0.2 48
2018-05-16 10:00:00 18.9 20 Norte 26 Norte 0 1016.3 0.4 55
2018-05-16 09:00:00 17.2 18 Norte 24 Norte 0 1016.4 0.8 62
2018-05-16 08:00:00 15.1 17 Norte 24 Norte 0 1016.3 0.6 72
2018-05-16 07:00:00 13.5 16 Norte 22 Norte 0 1015.9 0.2 81
2018-05-16 06:00:00 13.9 12 Norte 18 Norte 0 1015.6 -0.4 82
2018-05-16 05:00:00 14.1 13 Norte 18 Norte 0 1015.7 -0.5 82
2018-05-16 04:00:00 14.2 14 Norte 18 Norte 0 1015.7 -0.8 80
2018-05-16 03:00:00 15.1 5 Nordeste 8 Nordeste 0 1016 -0.4 78
2018-05-16 02:00:00 15.7 3 Noroeste 9 Sudoeste 0 1016.2 0.2 79
2018-05-16 01:00:00 15.9 4 Noroeste 13 Sudoeste 0 1016.5 1 77
2018-05-16 00:00:00 16.2 6 Oeste 18 Sudoeste 0 1016.4 1.3 72
2018-05-15 23:00:00 16.8 14 Sudoeste 30 Sudoeste 0 1016 1.6 70
2018-05-15 22:00:00 16.9 22 Sudoeste 33 Oeste 0 1015.5 1.5 70
2018-05-15 21:00:00 17 23 Sudoeste 37 Sudoeste 0 1015.1 1.1 72
2018-05-15 20:00:00 17.6 23 Sudoeste 42 Oeste 0 1014.4 0.6 69
2018-05-15 19:00:00 18.5 29 Sudoeste 41 Sudoeste 0 1014 -0.1 66
2018-05-15 18:00:00 19.1 33 Sudoeste 48 Sudoeste 0 1014 -0.5 63
2018-05-15 17:00:00 21.1 37 Sudoeste 46 Sudoeste 0 1013.8 -1.1 55
2018-05-15 16:00:00 22.4 26 Sudoeste 39 Sudoeste 0 1014.1 -1.3 46
2018-05-15 15:00:00 22.3 32 Sudoeste 45 Sudoeste 0 1014.5 -1.1 38
2018-05-15 14:00:00 21 31 Sudoeste 42 Sudoeste 0 1014.9 -1.1 49
2018-05-15 13:00:00 19.1 28 Sudoeste 37 Sudoeste 0 1015.4 -0.7 51
2018-05-15 12:00:00 18.8 21 Sudoeste 30 Sudoeste 0 1015.6 -0.7 51
2018-05-15 11:00:00 17.7 12 Sudoeste 21 Oeste 0 1016 -0.3 49
2018-05-15 10:00:00 16.9 11 Sudoeste 17 Norte 0 1016.1 0 49
2018-05-15 09:00:00 15.4 13 Norte 24 Norte 0 1016.3 0.4 49
2018-05-15 08:00:00 13.4 17 Norte 26 Norte 0 1016.3 0.1 56
2018-05-15 07:00:00 11.4 18 Norte 22 Norte 0 1016.1 -0.4 69
2018-05-15 06:00:00 11.2 10 Norte 13 Norte 0 1015.9 -1 79
2018-05-15 05:00:00 11.2 13 Norte 17 Norte 0 1016.2 -1.2 79
2018-05-15 04:00:00 11.7 12 Norte 21 Norte 0 1016.5 -1.1 77
2018-05-15 03:00:00 12.3 13 Norte 18 Norte 0 1016.9 -0.9 74
2018-05-15 02:00:00 12.6 10 Norte 13 Norte 0 1017.4 -0.2 71
2018-05-15 01:00:00 14 8 Norte 21 Este 0 1017.6 0.5 71
2018-05-15 00:00:00 14.4 10 Este 18 Este 0 1017.8 1.6 69
2018-05-14 23:00:00 14.8 15 Este 26 Este 0 1017.6 2 65
2018-05-14 22:00:00 15 22 Este 33 Este 0 1017.1 2.4 61
2018-05-14 21:00:00 15.6 27 Este 41 Este 0 1016.2 2.2 59
2018-05-14 20:00:00 16.6 28 Este 37 Este 0 1015.6 1.9 55
2018-05-14 19:00:00 17.6 30 Este 41 Este 0 1014.7 0.6 51
2018-05-14 18:00:00 18 12 Sudeste 28 Sudoeste 0 1014 -0.5 56
2018-05-14 17:00:00 18.9 21 Sudoeste 32 Sudoeste 0 1013.7 -1.1 52
2018-05-14 16:00:00 18.8 19 Sur 28 Sudoeste 0 1014.1 -0.9 48
2018-05-14 15:00:00 18.2 16 Sur 28 Sudoeste 0 1014.5 -0.6 45
2018-05-14 14:00:00 18 19 Sur 28 Sudoeste 0 1014.8 -0.2 48
2018-05-14 13:00:00 17.1 18 Sur 26 Sur 0 1015 -0.4 48
2018-05-14 12:00:00 16.8 12 Sur 21 Sur 0 1015.1 -0.4 42
2018-05-14 11:00:00 16.3 12 Sur 18 Sur 0 1015 -0.5 45
2018-05-14 10:00:00 15.3 5 Norte 21 Norte 0 1015.4 0.2 48
2018-05-14 09:00:00 13.3 15 Norte 24 Norte 0 1015.5 0.2 56
2018-05-14 08:00:00 12.2 15 Norte 18 Norte 0 1015.5 0.1 59
2018-05-14 07:00:00 10.9 10 Norte 26 Norte 0 1015.2 -0.3 60
2018-05-14 06:00:00 10.6 18 Norte 24 Nordeste 0 1015.3 -0.6 62
2018-05-14 05:00:00 10.5 13 Norte 22 Nordeste 0 1015.4 -0.8 69
2018-05-14 04:00:00 11.2 14 Norte 21 Norte 0 1015.5 -0.7 78
2018-05-14 03:00:00 11.4 12 Norte 17 Norte 0 1015.9 -0.7 80
2018-05-14 02:00:00 11.7 11 Norte 21 Nordeste 0 1016.2 -0.3 79
2018-05-14 01:00:00 13.5 9 Nordeste 15 Nordeste 0 1016.2 0.2 75
2018-05-11 20:00:00 19 25 Sudoeste 37 Sudoeste 0 1015.1 -0.3 81
2018-05-11 19:00:00 19.6 22 Sudoeste 45 Oeste 0 1015.3 -0.7 77
2018-05-11 18:00:00 20.1 35 Sudoeste 48 Oeste 0 1015.1 -1.5 76
2018-05-11 17:00:00 20.7 33 Oeste 50 Sudoeste 0 1015.4 -1.8 74
2018-05-11 16:00:00 20.5 35 Sudoeste 52 Sudoeste 0 1016 -1.5 73
2018-05-11 15:00:00 20.6 35 Oeste 48 Oeste 0 1016.6 -1.1 72
2018-05-11 14:00:00 21 31 Sudoeste 45 Oeste 0 1017.2 -0.7 68
2018-05-11 13:00:00 20.7 30 Oeste 42 Oeste 0 1017.5 -0.3 71
2018-05-11 12:00:00 20.3 31 Oeste 42 Oeste 0 1017.7 0 73
2018-05-11 11:00:00 19.8 26 Oeste 37 Sudoeste 0 1017.9 0.2 74
2018-05-11 10:00:00 18.6 23 Sudoeste 32 Sudoeste 0 1017.8 0.5 76
2018-05-11 09:00:00 18.1 19 Oeste 24 Oeste 0 1017.7 0.3 78
2018-05-11 08:00:00 16.3 5 Noroeste 9 Noroeste 0 1017.7 0.3 84
2018-05-11 07:00:00 14.4 8 Noroeste 13 Oeste 0 1017.3 -0.5 90
2018-05-11 06:00:00 15.1 8 Oeste 11 Oeste 0 1017.4 -0.6 91
2018-05-11 05:00:00 15.8 7 Oeste 9 Oeste 0 1017.4 -0.8 90
2018-05-11 04:00:00 16.3 8 Sudoeste 11 Sudoeste 0 1017.8 -0.6 87
2018-05-11 03:00:00 16.7 9 Sudoeste 11 Sudoeste 0 1018 -0.8 85
2018-05-11 02:00:00 16.3 7 Oeste 13 Sudoeste 0 1018.2 -0.6 87
2018-05-11 01:00:00 17.2 8 Sudoeste 11 Sur 0 1018.4 0.2 83
2018-05-11 00:00:00 17.4 7 Sudoeste 13 Sudoeste 0 1018.8 1.5 82
2018-05-10 23:00:00 17.6 8 Sudoeste 15 Sudoeste 0 1018.8 2.3 80
2018-05-10 22:00:00 17.7 9 Sur 15 Sur 0 1018.2 2.3 79
2018-05-10 21:00:00 17.9 9 Sur 18 Sudeste 0 1017.3 1.5 77
2018-05-10 20:00:00 18 11 Sur 21 Sur 0 1016.5 0.9 77
2018-05-10 19:00:00 18.8 15 Sudeste 22 Sudeste 0 1015.9 0.8 73
2018-05-10 18:00:00 18.9 14 Sur 26 Sudeste 0 1015.8 0.6 74
2018-05-10 17:00:00 19.6 18 Sudeste 28 Sudeste 0 1015.6 0.4 71
2018-05-10 16:00:00 20.1 22 Sudeste 33 Sudeste 0 1015.1 0.2 71
2018-05-10 15:00:00 20.3 19 Sudeste 26 Sudeste 0 1015.2 0.9 70
2018-05-10 14:00:00 20.3 10 Sudeste 24 Este 0 1015.2 1.4 66
2018-05-10 13:00:00 19.7 18 Este 26 Este 0 1014.9 1.6 68
2018-05-10 12:00:00 19.8 18 Este 30 Este 0 1014.3 1.8 65
2018-05-10 11:00:00 20.6 13 Este 21 Este 0 1013.8 2 65
2018-05-10 10:00:00 19.4 10 Nordeste 26 Norte 0 1013.3 2.1 70
2018-05-10 09:00:00 17.9 15 Norte 22 Norte 0 1012.5 1.9 77
2018-05-10 08:00:00 16.9 13 Nordeste 17 Nordeste 0 1011.8 1.8 83
2018-05-10 07:00:00 16.4 9 Norte 13 Norte 0 1011.2 1.6 83
2018-05-10 06:00:00 16.1 5 Norte 9 Noroeste 0 1010.6 1.1 85
2018-05-10 05:00:00 16.1 0 Calma -- -- 0 1010 0.3 87
2018-05-10 04:00:00 16.4 4 Noroeste 8 Noroeste 0 1009.6 -0.6 86
2018-05-10 03:00:00 16.7 4 Norte 11 Sudoeste 0 1009.5 -0.7 86
2018-05-10 02:00:00 16.8 5 Sudoeste 13 Sudoeste 0 1009.7 -0.5 85
2018-05-10 01:00:00 16.8 5 Oeste 13 Oeste 0 1010.2 0.6 88
2018-05-10 00:00:00 16.7 9 Oeste 13 Oeste 0 1010.2 1.2 90
2018-05-09 23:00:00 17 9 Oeste 15 Sudoeste 0 1010.2 1.6 84
2018-05-09 22:00:00 17.2 11 Sudoeste 15 Sudoeste 0 1009.6 0.9 84
2018-05-09 21:00:00 17.8 10 Sudoeste 15 Sudoeste 0 1009 0.6 80
2018-05-09 20:00:00 18.5 13 Sudoeste 17 Sudoeste 0 1008.6 -0.3 74
2018-05-09 19:00:00 18.6 11 Sur 13 Sur 0 1008.7 -0.1 76
2018-05-09 18:00:00 18.5 8 Sur 15 Sudeste 0 1008.4 -0.2 76
2018-05-09 17:00:00 18.5 11 Sudeste 21 Sudeste 0 1008.9 0.3 77
2018-05-09 16:00:00 19.5 9 Sudeste 26 Sudoeste 0 1008.8 -0.1 72
2018-05-09 15:00:00 20.1 18 Sudoeste 26 Sudoeste 0 1008.6 -0.3 67
2018-05-09 14:00:00 20 17 Sudoeste 24 Sudoeste 0 1008.6 -0.1 71
2018-05-09 13:00:00 19.6 15 Sudoeste 24 Sudoeste 0 1008.9 -0.2 72
2018-05-09 12:00:00 19.9 17 Sudoeste 24 Sudoeste 0 1008.9 -0.4 76
2018-05-09 11:00:00 19.2 17 Noroeste 28 Norte 0 1008.7 -0.1 69
2018-05-09 10:00:00 18.3 13 Norte 28 Norte 0 1009.1 0.8 76
2018-05-09 09:00:00 17.9 9 Noroeste 26 Norte 0 1009.3 0.7 85
2018-05-09 08:00:00 16.3 13 Norte 22 Norte 0 1008.8 0.1 86
2018-05-09 07:00:00 15.3 17 Norte 22 Norte 0 1008.3 -0.6 90
2018-05-09 06:00:00 15.5 2 Noroeste 11 Norte 0 1008.6 -0.6 95
2018-05-09 05:00:00 15.2 5 Noroeste -- -- 0 1008.7 -1 94
2018-05-09 04:00:00 15.2 6 Oeste 15 Norte 0 1008.9 -1.2 93
2018-05-09 03:00:00 15.9 0 Calma 8 Nordeste 0 1009.2 -0.7 92
2018-05-09 02:00:00 16.6 4 Noroeste 8 Noroeste 0 1009.7 -0.4 92
2018-05-09 01:00:00 16.9 4 Norte 9 Nordeste 0 1010.1 -0.1 93
2018-05-09 00:00:00 16 3 Oeste 11 Oeste 0 1009.9 0.2 93
2018-05-08 23:00:00 16.2 5 Oeste 22 Oeste 0 1010.1 0.7 93
2018-05-08 22:00:00 16.6 17 Oeste 22 Oeste 0 1010.2 0.4 93
2018-05-08 21:00:00 17.1 15 Sudoeste 24 Sudoeste 0 1009.7 -0.2 92
2018-05-08 20:00:00 17.5 15 Sur 30 Sudoeste 0.5 1009.4 -0.7 92
2018-05-08 19:00:00 17.7 17 Sudoeste 26 Sudoeste 0 1009.8 -0.4 88
2018-05-08 18:00:00 18.5 13 Sudoeste 22 Sudoeste 0 1009.9 -0.4 85
2018-05-08 17:00:00 19.7 17 Sudoeste 21 Sur 0 1010.1 -0.6 77
2018-05-08 16:00:00 21.1 17 Sudoeste 22 Sudoeste 0 1010.2 -1.1 71
2018-05-08 15:00:00 21.2 18 Sudoeste 22 Sudoeste 0 1010.3 -1.2 71
2018-05-08 14:00:00 19.7 15 Sudoeste 18 Sudoeste 0 1010.7 -0.8 78
2018-05-08 13:00:00 18.5 17 Sudoeste 22 Sudoeste 0 1011.3 -0.1 83
2018-05-08 12:00:00 18.7 18 Sudoeste 22 Sudoeste 0 1011.5 0.2 80
2018-05-08 11:00:00 19.7 14 Sudoeste 21 Sudoeste 0 1011.5 0.1 77
2018-05-08 10:00:00 18.9 10 Sudoeste 15 Sudoeste 0 1011.4 -0.1 82
2018-05-08 09:00:00 17.9 4 Sudoeste 9 Sudoeste 0 1011.3 -0.3 88
2018-05-08 08:00:00 16.1 3 Oeste 8 Oeste 0 1011.4 -0.2 93
2018-05-08 07:00:00 15.3 4 Noroeste 9 Noroeste 0 1011.5 -0.1 94
2018-05-08 06:00:00 15.6 6 Oeste 13 Oeste 0 1011.6 -0.3 95
2018-05-08 05:00:00 15.8 9 Oeste 17 Oeste 0 1011.6 -0.2 95
2018-05-08 04:00:00 15.8 13 Oeste 18 Oeste 0 1011.6 -0.4 94
2018-05-08 03:00:00 15.8 13 Sudoeste 17 Sudoeste 0 1011.9 -0.3 93
2018-05-08 02:00:00 15.8 9 Sudoeste 15 Sudoeste 0 1011.8 -1 93
2018-05-08 01:00:00 15.9 8 Sudoeste 13 Sudoeste 0 1012 -0.4 93
2018-05-08 00:00:00 16.2 12 Sudoeste 18 Sudoeste 0 1012.2 -0.2 92
2018-05-07 23:00:00 16.2 18 Oeste 26 Oeste 0 1012.8 -0.5 92
2018-05-07 22:00:00 16.7 15 Sudoeste 22 Sudoeste 0 1012.4 -1 89
2018-05-07 21:00:00 16.6 13 Oeste 24 Oeste 0 1012.4 -1 90
2018-05-07 20:00:00 17 17 Sudoeste 24 Sudoeste 0 1013.3 0 87
2018-05-07 19:00:00 17.4 20 Sudoeste 30 Sudoeste 0 1013.4 -0.3 84
2018-05-07 18:00:00 18.6 23 Sudoeste 35 Sudoeste 0 1013.4 -0.8 77
2018-05-07 17:00:00 19.1 30 Sudoeste 41 Sudoeste 0 1013.3 -1.3 75
2018-05-07 16:00:00 19.3 28 Sudoeste 37 Sudoeste 0 1013.7 -1.4 76
2018-05-07 15:00:00 19.9 26 Sudoeste 32 Sudoeste 0 1014.2 -1.2 74
2018-05-07 14:00:00 21 22 Sudoeste 26 Sudoeste 0 1014.6 -1 68
2018-05-07 13:00:00 21.5 17 Sudoeste 21 Sudoeste 0 1015.1 -0.4 63
2018-05-07 12:00:00 21 11 Sudoeste 15 Sudoeste 0 1015.4 -0.1 66
2018-05-07 11:00:00 20.2 9 Sur 11 Sudoeste 0 1015.6 0.3 73
2018-05-07 10:00:00 17.9 8 Oeste 13 Oeste 0 1015.5 0.3 83
2018-05-07 09:00:00 16.7 12 Sudoeste 13 Oeste 0 1015.5 0.3 88
2018-05-07 08:00:00 16.4 3 Sudoeste 8 Oeste 0 1015.3 0.2 88
2018-05-07 07:00:00 16.2 3 Oeste 8 Sudoeste 0 1015.2 -0.3 89
2018-05-07 06:00:00 16.4 5 Sudoeste 11 Sur 0 1015.2 -0.3 88
2018-05-07 05:00:00 15.9 6 Sudoeste 15 Sudoeste 0 1015.1 -1 90
2018-05-07 04:00:00 16.2 11 Sudoeste 15 Sudoeste 0 1015.5 -0.9 86
2018-05-07 03:00:00 16.8 0 Calma 8 Norte 0 1015.5 -1.3 79
2018-05-07 02:00:00 16 2 Oeste 9 Oeste 0 1016.1 -0.8 86
2018-05-07 01:00:00 16.2 5 Oeste 8 Oeste 0 1016.4 -0.3 86
2018-05-07 00:00:00 16.6 4 Norte 9 Sudoeste 0 1016.8 0.3 83
2018-05-06 23:00:00 16.3 6 Sudoeste 11 Oeste 0 1016.9 0.7 84
2018-05-06 22:00:00 16.9 9 Sudoeste 17 Oeste 0 1016.7 0.6 81
2018-05-06 21:00:00 17.8 10 Sudoeste 18 Oeste 0 1016.5 0.4 74
2018-05-06 20:00:00 18.7 14 Sudoeste 22 Sudoeste 0 1016.2 0.2 72
2018-05-06 19:00:00 18.9 17 Sudoeste 26 Sudoeste 0 1016.1 0 75
2018-05-06 18:00:00 19 22 Sudoeste 30 Sudoeste 0 1016.1 -0.5 77
2018-05-06 17:00:00 19.7 19 Sudoeste 22 Sudoeste 0 1016 -0.8 74
2018-05-06 16:00:00 21.7 17 Sudoeste 24 Sur 0 1016.1 -1.4 67
2018-05-06 15:00:00 21.9 16 Norte 24 Norte 0 1016.6 -1.7 62
2018-05-06 14:00:00 19.6 22 Norte 45 Noroeste 0 1016.8 -1.5 76
2018-05-06 13:00:00 17.6 15 Norte 32 Norte 0.5 1017.5 -0.6 87
2018-05-06 12:00:00 15.9 8 Norte 21 Norte 0.8 1018.3 1.1 90
2018-05-06 11:00:00 15.8 10 Nordeste 22 Norte 1.4 1018.3 2.2 86
2018-05-06 10:00:00 16.6 13 Norte 30 Nordeste 0 1018.1 2.2 77
2018-05-06 09:00:00 16 15 Nordeste 32 Nordeste 0 1017.2 1.8 78
2018-05-06 08:00:00 15 20 Norte 28 Norte 0 1016.1 0.4 82
2018-05-06 07:00:00 14.9 19 Norte 26 Norte 0 1015.9 0.1 83
2018-05-06 06:00:00 15 19 Norte 26 Norte 0 1015.4 -0.4 84
2018-05-06 05:00:00 15.3 17 Norte 26 Norte 0 1015.7 -0.7 84
2018-05-06 04:00:00 15.7 17 Norte 22 Norte 0 1015.8 -0.8 84
2018-05-06 03:00:00 15.6 17 Norte 22 Norte 0 1015.8 -1 85
2018-05-06 02:00:00 15.5 14 Norte 21 Norte 0 1016.4 -0.4 87
2018-05-06 01:00:00 15.7 8 Norte 13 Nordeste 0 1016.6 -0.1 87
2018-05-06 00:00:00 15.8 3 Noroeste 5 Oeste 0 1016.8 0.5 90
2018-05-05 23:00:00 15.9 6 Oeste 11 Oeste 0 1016.8 0.9 87
2018-05-05 22:00:00 16.5 8 Oeste 11 Oeste 0 1016.7 1.1 85
2018-05-05 21:00:00 17.8 9 Sudoeste 13 Sudoeste 0 1016.3 0.6 80
2018-05-05 20:00:00 19.1 9 Sudoeste 11 Sudoeste 0.1 1015.9 0.1 77
2018-05-05 19:00:00 21.2 6 Sudoeste 13 Oeste 0 1015.6 0.2 68
2018-05-05 18:00:00 20 0 Calma 17 Este 0.3 1015.7 0.2 70
2018-05-05 17:00:00 19.1 16 Este 26 Nordeste 0.5 1015.8 0.4 75
2018-05-05 16:00:00 20.4 12 Norte 24 Norte 0 1015.4 -0.1 65
2018-05-05 15:00:00 18.8 16 Norte 24 Norte 0 1015.5 0.2 68
2018-05-05 14:00:00 16.4 15 Norte 28 Norte 0.1 1015.4 0.2 78
2018-05-05 13:00:00 16.8 21 Norte 32 Norte 0 1015.5 1.1 67
2018-05-05 12:00:00 15.4 18 Norte 35 Norte 0.2 1015.3 1.5 75
2018-05-05 11:00:00 15.1 25 Norte 35 Norte 0.1 1015.2 2 67
2018-05-05 10:00:00 15.6 26 Norte 37 Norte 0 1014.4 1.7 59
2018-05-05 09:00:00 15.2 23 Norte 39 Norte 0 1013.8 1.1 60
2018-05-05 08:00:00 15.1 23 Norte 35 Norte 0 1013.2 0.5 61
2018-05-05 07:00:00 15.3 23 Norte 32 Norte 0 1012.7 -0.1 60
2018-05-05 06:00:00 15.8 19 Norte 28 Norte 0 1012.7 -0.6 61
2018-05-05 05:00:00 16 11 Norte 18 Norte 0 1012.7 -0.9 66
2018-05-05 04:00:00 15.8 10 Norte 15 Norte 0 1012.8 -0.8 72
2018-05-05 03:00:00 15.5 12 Norte 17 Norte 0 1013.3 -0.6 75
2018-05-05 02:00:00 15.4 12 Norte 18 Norte 0 1013.6 -0.3 75
2018-05-05 01:00:00 15.4 7 Noroeste 8 Norte 0 1013.6 0.1 82
2018-05-05 00:00:00 15.5 4 Sudoeste 15 Oeste 0 1013.9 1.3 78
2018-05-04 23:00:00 15.4 12 Oeste 18 Oeste 0 1013.9 1.7 76
2018-05-04 22:00:00 15.6 15 Oeste 24 Sudoeste 0 1013.5 1.6 74
2018-05-04 21:00:00 16.2 17 Sudoeste 24 Sudoeste 0 1012.6 0.8 65
2018-05-04 20:00:00 16.2 19 Oeste 28 Oeste 0 1012.2 0.6 64
2018-05-04 19:00:00 17.2 14 Sudoeste 22 Sudoeste 0 1011.9 0 60
2018-05-04 18:00:00 16.9 14 Sudoeste 24 Oeste 0 1011.8 -0.1 58
2018-05-04 17:00:00 16.8 17 Sudoeste 24 Sudoeste 0 1011.6 -0.1 56
2018-05-04 16:00:00 16.9 16 Sudoeste 21 Sudoeste 0 1011.9 0.4 58
2018-05-04 15:00:00 16.9 13 Sudoeste 17 Sudoeste 0 1011.9 0.4 56
2018-05-04 14:00:00 17.3 11 Noroeste 21 Noroeste 0 1011.7 0.7 54
2018-05-04 13:00:00 16.9 12 Norte 21 Norte 0 1011.5 1 54
2018-05-04 12:00:00 15.9 15 Norte 26 Norte 0 1011.5 1.1 54
2018-05-04 11:00:00 14.9 21 Norte 28 Norte 0 1011 0.5 55
2018-05-04 10:00:00 14.1 18 Norte 30 Norte 0 1010.5 0.3 57
2018-05-04 09:00:00 13.6 21 Norte 30 Norte 0 1010.4 1.5 56
2018-05-04 08:00:00 13.3 19 Norte 26 Norte 0 1010.5 2 57
2018-05-04 07:00:00 13.9 15 Norte 30 Norte 0 1010.2 1.5 52
2018-05-04 06:00:00 14.4 17 Norte 32 Norte 0 1008.9 -0.2 52
2018-05-04 05:00:00 14.9 24 Norte 35 Norte 0 1008.5 -1.1 51
2018-05-04 04:00:00 15 17 Norte 26 Norte 0 1008.7 -1.1 56
2018-05-04 03:00:00 15.6 15 Norte 21 Norte 0 1009.1 -0.8 58
2018-05-04 02:00:00 15.3 10 Norte 15 Norte 0 1009.6 -0.5 75
2018-05-04 01:00:00 15.3 6 Noroeste 17 Norte 0 1009.8 0.1 85
2018-05-04 00:00:00 16.1 12 Norte 13 Norte 0 1009.9 0.7 84
2018-05-03 23:00:00 16.6 7 Norte 15 Norte 0 1010.1 1.7 74
2018-05-03 22:00:00 17.2 8 Nordeste 17 Norte 0 1009.7 2.3 69
2018-05-03 21:00:00 16.9 10 Nordeste 26 Este 0 1009.2 1.4 71
2018-05-03 20:00:00 17 21 Este 26 Este 0 1008.4 0.9 75
2018-05-03 19:00:00 17.1 9 Sudoeste 18 Sudeste 0.2 1007.4 0.4 74
2018-05-03 18:00:00 17.2 13 Este 28 Nordeste 1.1 1007.8 1 70
2018-05-03 17:00:00 18.3 15 Este 26 Sudeste 0.2 1007.5 0.3 71
2018-05-03 16:00:00 22.7 12 Norte 26 Noroeste 0 1007 -1.1 34
2018-05-03 15:00:00 23.1 17 Norte 28 Norte 0 1006.8 -1.7 34
2018-05-03 14:00:00 22.8 15 Noroeste 33 Oeste 0 1007.2 -1.5 44
2018-05-03 13:00:00 19.8 23 Sudoeste 33 Sudoeste 0 1008.1 -1 56
2018-05-03 12:00:00 19.1 18 Sudoeste 24 Oeste 0 1008.5 -0.6 53
2018-05-03 11:00:00 17.7 19 Sudoeste 22 Sudoeste 0 1008.7 -0.5 55
2018-05-03 10:00:00 18.1 12 Sudoeste 18 Sudoeste 0 1009.1 0.2 58
2018-05-03 09:00:00 17.4 2 Oeste 11 Norte 0 1009.1 0.2 60
2018-05-03 08:00:00 14.4 10 Norte 15 Norte 0 1009.2 0 69
2018-05-03 07:00:00 11.9 13 Norte 21 Norte 0 1008.9 -0.4 79
2018-05-03 06:00:00 11.8 14 Norte 22 Norte 0 1008.9 -0.4 80
2018-05-03 05:00:00 12.4 14 Norte 22 Norte 0 1009.2 -0.6 79
2018-05-03 04:00:00 13.1 14 Norte 22 Norte 0 1009.3 -0.6 77
2018-05-03 03:00:00 13.3 14 Norte 21 Norte 0 1009.3 -0.6 78
2018-05-03 02:00:00 13.1 12 Norte 21 Norte 0 1009.8 -0.1 81
2018-05-03 01:00:00 13.7 12 Norte 15 Norte 0 1009.9 0.2 76
2018-05-03 00:00:00 14.8 4 Norte 15 Nordeste 0 1009.9 0.7 77
2018-05-02 23:00:00 15.8 13 Nordeste 17 Este 0 1009.9 1.1 75
2018-05-02 22:00:00 16.3 6 Oeste 22 Oeste 0 1009.7 0.9 57
2018-05-02 21:00:00 16.8 15 Sudoeste 32 Oeste 0 1009.2 0.2 59
2018-05-02 20:00:00 17.4 22 Sudoeste 41 Oeste 0 1008.8 -0.2 66
2018-05-02 19:00:00 18.3 26 Oeste 39 Oeste 0 1008.8 -0.8 58
2018-05-02 18:00:00 18.4 28 Sudoeste 33 Sudoeste 0 1009 -1.3 60
2018-05-02 17:00:00 19 22 Sudoeste 30 Sudoeste 0 1009 -1.6 46
2018-05-02 16:00:00 17.8 19 Sudoeste 32 Sudoeste 0 1009.6 -1.4 51
2018-05-02 15:00:00 17.4 21 Sudoeste 39 Sudoeste 0 1010.3 -1.2 55
2018-05-02 14:00:00 17.5 18 Sudoeste 24 Sudoeste 0 1010.6 -1.1 43
2018-05-02 13:00:00 16.7 16 Sudoeste 22 Sudoeste 0 1011 -0.7 54
2018-05-02 12:00:00 17.4 10 Norte 24 Norte 0 1011.5 -0.3 41
2018-05-02 11:00:00 15.6 18 Norte 35 Norte 0 1011.7 0.1 50
2018-05-02 10:00:00 13.2 17 Norte 30 Norte 0 1011.7 0.6 62
2018-05-02 09:00:00 10.2 19 Norte 28 Norte 0 1011.8 0.3 75
2018-05-02 08:00:00 8.4 16 Norte 30 Norte 0 1011.6 -0.6 82
2018-05-02 07:00:00 7.3 19 Norte 28 Norte 0 1011.1 -1.3 88
2018-05-02 06:00:00 7.7 18 Norte 26 Norte 0 1011.5 -0.9 87
2018-05-02 05:00:00 8.2 11 Norte 22 Norte 0 1012.2 -0.4 85
2018-05-02 04:00:00 8.9 17 Norte 26 Norte 0 1012.4 -0.4 83
2018-05-02 03:00:00 9.2 17 Norte 24 Norte 0 1012.4 -0.9 83
2018-05-02 02:00:00 9.5 15 Norte 22 Norte 0 1012.6 -1 81
2018-05-02 01:00:00 9.5 15 Norte 18 Norte 0 1012.8 -0.6 84
2018-05-02 00:00:00 9.9 12 Norte 17 Norte 0 1013.3 0.2 83
2018-05-01 23:00:00 10.4 11 Norte 13 Norte 0 1013.6 1.1 81
2018-05-01 22:00:00 10.8 6 Noroeste 21 Norte 0 1013.4 0.2 80
2018-05-01 21:00:00 11.3 13 Noroeste 17 Noroeste 0 1013.1 -0.1 78
2018-05-01 20:00:00 12.2 11 Norte 21 Norte 0.3 1012.5 0.2 79
2018-05-01 19:00:00 11.2 13 Noroeste 42 Norte 1 1013.2 0.6 85
2018-05-01 18:00:00 14.4 10 Oeste 26 Sudoeste 0 1013.2 0.5 57
2018-05-01 17:00:00 15.6 17 Sudoeste 24 Sudoeste 0 1012.3 -0.9 50
2018-05-01 16:00:00 16.5 15 Sur 22 Sudoeste 0 1012.6 -1.2 45
2018-05-01 15:00:00 16 14 Sur 22 Sur 0 1012.7 -1.6 54
2018-05-01 14:00:00 14.8 9 Noroeste 21 Noroeste 0 1013.2 -1.1 66
2018-05-01 13:00:00 12.8 8 Noroeste 15 Noroeste 0 1013.8 -0.4 73
2018-05-01 12:00:00 11.3 5 Noroeste 18 Noroeste 0.1 1014.3 0.5 81
2018-05-01 11:00:00 10.7 4 Sur 30 Este 1.3 1014.3 1 79
2018-05-01 10:00:00 9.9 16 Nordeste 52 Norte 4.4 1014.2 1 83
2018-05-01 09:00:00 9.4 18 Nordeste 37 Nordeste 2.8 1013.8 1 90
2018-05-01 08:00:00 9.9 21 Nordeste 30 Este 3.4 1013.3 0.6 86
2018-05-01 07:00:00 9.9 4 Sudoeste 33 Noroeste 16.1 1013.2 0.7 88
2018-05-01 06:00:00 13.1 14 Este 26 Este 3.7 1012.8 0.8 77
2018-05-01 05:00:00 13 5 Oeste 15 Oeste 0 1012.7 0.4 62
2018-05-01 04:00:00 12.8 5 Nordeste 18 Norte 0 1012.5 0 62
2018-05-01 03:00:00 12.8 13 Norte 18 Nordeste 0 1012 -0.3 64
2018-05-01 02:00:00 13.8 12 Norte 22 Norte 0 1012.3 0 61
2018-05-01 01:00:00 13.8 0 Calma 13 Oeste 0 1012.5 0.4 64
2018-05-01 00:00:00 14.1 10 Oeste 21 Oeste 0 1012.3 0.4 64
2018-04-30 23:00:00 14.8 14 Oeste 21 Sudoeste 0 1012.3 0.6 61
2018-04-30 22:00:00 15.1 18 Oeste 28 Oeste 0 1012.1 0.6 61
2018-04-30 21:00:00 15.6 21 Oeste 32 Oeste 0 1011.9 0.6 57
2018-04-30 20:00:00 16.3 23 Sudoeste 37 Sudoeste 0 1011.7 0.3 54
2018-04-30 19:00:00 17 28 Sudoeste 41 Sudoeste 0 1011.5 -0.1 48
2018-04-30 18:00:00 17.7 30 Sudoeste 41 Sudoeste 0 1011.3 -0.7 42
2018-04-30 17:00:00 18.4 31 Sudoeste 42 Sudoeste 0 1011.4 -0.8 38
2018-04-30 16:00:00 19.1 30 Sudoeste 45 Sudoeste 0 1011.6 -0.7 33
2018-04-30 15:00:00 17.9 32 Sudoeste 42 Sudoeste 0 1012 -0.6 43
2018-04-30 14:00:00 18 33 Sudoeste 42 Sudoeste 0 1012.2 -0.7 43
2018-04-30 13:00:00 17.8 24 Sudoeste 39 Sudoeste 0 1012.3 -0.4 46
2018-04-30 12:00:00 18 19 Sudoeste 26 Sudoeste 0 1012.6 0.2 41
2018-04-30 11:00:00 17.1 13 Sudoeste 21 Sudoeste 0 1012.9 0.9 43
2018-04-30 10:00:00 16.5 3 Sur 11 Sudoeste 0 1012.7 1.1 43
2018-04-30 09:00:00 14.7 5 Sur 9 Norte 0 1012.4 1 51
2018-04-30 08:00:00 12.5 6 Norte 11 Norte 0 1012 0.5 62
2018-04-30 07:00:00 10.4 10 Norte 13 Norte 0 1011.6 0.2 73
2018-04-30 06:00:00 10.2 6 Norte 15 Norte 0 1011.4 -0.2 75
2018-04-30 05:00:00 11 4 Nordeste 17 Norte 0 1011.5 -0.2 72
2018-04-30 04:00:00 11.6 6 Norte 9 Norte 0 1011.4 -0.1 70
2018-04-30 03:00:00 11.9 4 Norte 11 Norte 0 1011.6 0.2 68
2018-04-30 02:00:00 13 0 Calma 9 Sudoeste 0 1011.7 0.7 61
2018-04-30 01:00:00 12.9 8 Oeste 15 Noroeste 0 1011.5 1.4 65
2018-04-30 00:00:00 13.5 8 Oeste 15 Oeste 0 1011.4 2.6 61
2018-04-29 23:00:00 14.1 13 Oeste 17 Oeste 0 1011 3 59
2018-04-29 22:00:00 14.9 12 Oeste 17 Oeste 0 1010.1 2.5 55
2018-04-29 21:00:00 15.5 16 Oeste 26 Oeste 0 1008.8 2.1 55
2018-04-29 20:00:00 16.4 12 Oeste 39 Oeste 0 1008 2.3 56
2018-04-29 19:00:00 16.4 28 Oeste 39 Oeste 0 1007.6 2.5 59
2018-04-29 18:00:00 17.3 22 Sudoeste 30 Sudoeste 0 1006.7 2.1 50
2018-04-29 17:00:00 17.8 19 Sudoeste 42 Oeste 0 1005.7 1.8 47
2018-04-29 16:00:00 16.4 23 Oeste 67 Noroeste 0 1005.1 0.9 55
2018-04-29 15:00:00 18.1 57 Oeste 82 Noroeste 0 1004.6 0.4 48
2018-04-29 14:00:00 19.2 29 Sudoeste 39 Sudoeste 0 1003.9 -0.3 61
2018-04-29 13:00:00 17.7 17 Norte 42 Sudoeste 0 1004.2 -0.2 64
2018-04-29 12:00:00 18.8 30 Sudoeste 42 Sudoeste 0 1004.2 -0.9 79
2018-04-29 11:00:00 17.6 22 Sur 39 Sudoeste 0 1004.2 -0.8 83
2018-04-29 10:00:00 17.2 17 Sur 26 Sur 0.1 1004.4 -0.2 88
2018-04-29 09:00:00 17 13 Sur 33 Sur 0.3 1005.1 -0.1 87
2018-04-29 08:00:00 17.8 18 Sudoeste 32 Sudoeste 0 1005 -0.6 78
2018-04-29 07:00:00 17.8 14 Sudeste 22 Este 0 1004.6 -1.4 79
2018-04-29 06:00:00 17.4 13 Este 15 Este 0 1005.2 -1.3 83
2018-04-29 05:00:00 17.4 9 Sudeste 13 Sur 0 1005.6 -1.8 82
2018-04-29 04:00:00 17.7 8 Sudeste 17 Sur 0 1006 -1.7 79
2018-04-29 03:00:00 17.5 12 Sudeste 15 Sudeste 0 1006.5 -1.7 83
2018-04-29 02:00:00 17.5 12 Sudeste 15 Sudeste 0 1007.4 -1.3 82
2018-04-29 01:00:00 17.6 10 Sudeste 15 Sudeste 0 1007.7 -0.8 82
2018-04-29 00:00:00 18 9 Sudeste 13 Sudeste 0 1008.2 0 79
2018-04-28 23:00:00 18.1 8 Sur 11 Sur 0 1008.7 0.6 79
2018-04-28 22:00:00 17.9 5 Sudoeste 13 Sudoeste 0 1008.5 -0.4 79
2018-04-28 21:00:00 18 6 Sur 13 Sudoeste 0 1008.2 -1 78
2018-04-28 20:00:00 18.6 7 Sudoeste 17 Sudoeste 0 1008.1 -1.4 75
2018-04-28 19:00:00 19.8 7 Sudoeste 15 Sudoeste 0 1008.9 -1.1 69
2018-04-28 18:00:00 20.2 10 Sur 22 Sur 0 1009.2 -1.3 68
2018-04-28 17:00:00 20.6 15 Sudoeste 22 Sudoeste 0 1009.5 -1.4 65
2018-04-28 16:00:00 20.5 12 Sur 22 Sudoeste 0 1010 -1.3 63
2018-04-28 15:00:00 20.3 14 Sur 24 Sur 0 1010.5 -1.4 70
2018-04-28 14:00:00 20.1 15 Sur 21 Sur 0 1010.9 -1.1 74
2018-04-28 13:00:00 20.3 13 Sur 18 Sur 0 1011.3 -0.6 69
2018-04-28 12:00:00 19.7 12 Sudeste 18 Sudeste 0 1011.9 -0.1 74
2018-04-28 11:00:00 18.8 12 Sudeste 17 Sudeste 0 1012 0.3 77
2018-04-28 10:00:00 19.3 5 Este 17 Sudeste 0 1011.9 0.5 74
2018-04-28 09:00:00 17.3 6 Norte 11 Norte 0 1012 0.7 83
2018-04-28 08:00:00 16.2 5 Norte 8 Norte 0 1011.7 0 87
2018-04-28 07:00:00 16 7 Norte 11 Norte 0 1011.4 -0.2 88
2018-04-28 06:00:00 16.3 5 Norte 8 Norte 0 1011.3 -0.1 89
2018-04-28 05:00:00 16.2 7 Oeste 11 Sur 0 1011.7 0.2 90
2018-04-28 04:00:00 17.1 6 Sur 11 Sur 0 1011.6 -1.3 87
2018-04-28 03:00:00 17.5 10 Este 22 Este 0 1011.4 -2.2 83
2018-04-28 02:00:00 17.9 18 Este 24 Este 0 1011.5 -1.9 80
2018-04-28 01:00:00 17.6 2 Norte 9 Norte 0 1012.9 -0.6 81
2018-04-28 00:00:00 17.7 5 Sudeste 15 Este 0 1013.6 0.7 83